Time;durP1;ratioP1;P1;durP2;ratioP2;P2;SDS_P1;SDS_P2;PMS_P1;PMS_P2;Temp;Humidity;BMP_temperature;BMP_pressure;BME280_temperature;BME280_humidity;BME280_pressure;Samples;Min_cycle;Max_cycle;Signal;HPM_P1;HPM_P2
2022/11/01 00:01:20;;;;;;;4.35;2.13;;;;;;;14.01;100.00;100537.94;5040103;28;20510;-76
2022/11/01 00:03:53;;;;;;;3.38;2.03;;;;;;;14.00;100.00;100528.41;5040184;28;20056;-77
2022/11/01 00:06:22;;;;;;;2.22;1.55;;;;;;;13.97;100.00;100524.88;5039803;28;20054;-77
2022/11/01 00:08:52;;;;;;;3.03;1.65;;;;;;;13.87;100.00;100523.03;5041975;28;20675;-78
2022/11/01 00:11:21;;;;;;;3.15;1.55;;;;;;;13.79;100.00;100530.75;5044049;28;20470;-77
2022/11/01 00:13:50;;;;;;;2.67;1.65;;;;;;;13.74;100.00;100543.69;5039504;28;20053;-78
2022/11/01 00:16:22;;;;;;;4.40;1.55;;;;;;;13.67;100.00;100541.84;5043508;28;20052;-77
2022/11/01 00:18:51;;;;;;;7.85;1.70;;;;;;;13.65;100.00;100527.06;5039993;28;20048;-77
2022/11/01 00:21:20;;;;;;;1.65;1.20;;;;;;;13.61;100.00;100529.63;5037631;28;20041;-77
2022/11/01 00:23:48;;;;;;;7.05;2.17;;;;;;;13.57;100.00;100517.44;5046071;28;20937;-79
2022/11/01 00:26:24;;;;;;;1.92;1.15;;;;;;;13.52;100.00;100519.13;5045978;28;20056;-76
2022/11/01 00:28:52;;;;;;;4.53;1.80;;;;;;;13.49;100.00;100528.59;5041187;28;20523;-76
2022/11/01 00:31:22;;;;;;;3.72;1.58;;;;;;;13.44;100.00;100528.53;5044572;28;20052;-80
2022/11/01 00:33:51;;;;;;;7.70;1.70;;;;;;;13.36;100.00;100509.38;5041257;28;20514;-77
2022/11/01 00:36:19;;;;;;;3.55;1.52;;;;;;;13.28;100.00;100504.03;5041597;28;20041;-76
2022/11/01 00:38:51;;;;;;;17.48;4.03;;;;;;;13.20;100.00;100503.03;5040308;28;20057;-78
2022/11/01 00:41:21;;;;;;;6.05;2.08;;;;;;;13.09;100.00;100489.88;5042528;28;20053;-77
2022/11/01 00:43:50;;;;;;;4.60;2.08;;;;;;;13.00;100.00;100495.81;5045946;28;20095;-78
2022/11/01 00:46:19;;;;;;;7.22;2.10;;;;;;;12.94;100.00;100497.44;5041795;28;20056;-77
2022/11/01 00:48:49;;;;;;;5.80;2.30;;;;;;;12.89;100.00;100488.69;5041171;28;20045;-78
2022/11/01 00:51:18;;;;;;;5.05;2.10;;;;;;;12.86;100.00;100491.25;5046496;28;20128;-85
2022/11/01 00:53:47;;;;;;;6.85;2.83;;;;;;;12.85;100.00;100494.69;5046219;28;20052;-76
2022/11/01 00:56:15;;;;;;;7.82;2.85;;;;;;;12.82;100.00;100489.44;5043166;28;20106;-77
2022/11/01 00:58:45;;;;;;;7.93;2.95;;;;;;;12.79;100.00;100485.97;5037938;28;20502;-77
2022/11/01 01:01:14;;;;;;;5.60;2.70;;;;;;;12.76;100.00;100480.72;5046503;28;20114;-77
2022/11/01 01:03:42;;;;;;;4.57;2.75;;;;;;;12.77;100.00;100491.97;5044665;28;20164;-76
2022/11/01 01:06:11;;;;;;;6.65;2.90;;;;;;;12.77;100.00;100495.44;5043225;28;20056;-77
2022/11/01 01:08:39;;;;;;;7.07;2.60;;;;;;;12.81;100.00;100503.31;5039087;28;20041;-77
2022/11/01 01:11:14;;;;;;;5.70;3.30;;;;;;;12.82;100.00;100508.50;5042417;28;20057;-78
2022/11/01 01:13:43;;;;;;;5.55;3.13;;;;;;;12.83;100.00;100517.16;5038918;28;20064;-77
2022/11/01 01:16:16;;;;;;;6.57;3.70;;;;;;;12.82;100.00;100523.22;5049237;28;20081;-77
2022/11/01 01:18:45;;;;;;;9.07;3.72;;;;;;;12.82;100.00;100518.88;5046585;28;20044;-77
2022/11/01 01:21:16;;;;;;;7.00;3.67;;;;;;;12.81;100.00;100508.50;5040237;28;20041;-77
2022/11/01 01:23:45;;;;;;;9.93;4.50;;;;;;;12.79;100.00;100509.31;5041038;28;20053;-82
2022/11/01 01:26:14;;;;;;;7.75;4.07;;;;;;;12.77;100.00;100528.31;5039485;28;20052;-78
2022/11/01 01:28:42;;;;;;;8.60;4.60;;;;;;;12.71;100.00;100518.72;5039635;28;20052;-76
2022/11/01 01:31:16;;;;;;;8.48;3.92;;;;;;;12.64;100.00;100516.84;5042368;28;20716;-76
2022/11/01 01:33:45;;;;;;;8.10;4.13;;;;;;;12.59;100.00;100515.91;5038013;28;20046;-77
2022/11/01 01:36:14;;;;;;;11.02;4.45;;;;;;;12.56;100.00;100516.72;5039144;28;20053;-76
2022/11/01 01:38:43;;;;;;;15.90;3.63;;;;;;;12.53;100.00;100514.09;5044768;28;20588;-77
2022/11/01 01:43:57;;;;;;;8.57;4.50;;;;;;;12.55;100.00;100516.69;5041096;28;20517;-76
2022/11/01 01:46:27;;;;;;;6.32;3.72;;;;;;;12.55;100.00;100499.41;5039670;28;20474;-75
2022/11/01 01:49:01;;;;;;;7.07;3.83;;;;;;;12.56;100.00;100487.31;5037840;28;20041;-74
2022/11/01 01:51:31;;;;;;;9.48;3.83;;;;;;;12.56;100.00;100492.50;5042972;28;20055;-77
2022/11/01 01:54:00;;;;;;;5.47;3.20;;;;;;;12.58;100.00;100475.22;5039083;28;20107;-77
2022/11/01 01:56:32;;;;;;;10.63;4.07;;;;;;;12.60;100.00;100486.53;5036981;28;20098;-75
2022/11/01 01:59:02;;;;;;;;;;;;;;;12.62;100.00;100503.00;5045860;28;20503;-77
2022/11/01 02:01:34;;;;;;;13.55;3.88;;;;;;;12.63;100.00;100499.53;5036634;28;19932;-76
2022/11/01 02:04:04;;;;;;;7.70;3.83;;;;;;;12.65;100.00;100503.03;5044467;28;20053;-76
2022/11/01 02:06:34;;;;;;;9.50;3.67;;;;;;;12.65;100.00;100492.66;5043673;28;20102;-77
2022/11/01 02:09:08;;;;;;;7.00;3.80;;;;;;;12.66;100.00;100494.38;5041956;28;20056;-78
2022/11/01 02:11:37;;;;;;;6.93;4.80;;;;;;;12.66;100.00;100499.56;5038635;28;20100;-77
2022/11/01 02:14:05;;;;;;;11.30;4.18;;;;;;;12.65;100.00;100503.03;5040825;28;20053;-77
2022/11/01 02:16:46;;;;;;;7.40;3.63;;;;;;;12.58;100.00;100491.66;5039945;28;20049;-78
2022/11/01 02:19:48;;;;;;;9.77;3.88;;;;;;;12.53;100.00;100487.25;5039853;28;20065;-78
2022/11/01 02:22:26;;;;;;;12.60;4.18;;;;;;;12.52;100.00;100486.38;5021663;28;20041;-79
2022/11/01 02:25:21;;;;;;;8.23;4.70;;;;;;;12.50;100.00;100494.97;5040102;28;20415;-80
2022/11/01 02:28:08;;;;;;;10.60;4.97;;;;;;;12.49;100.00;100485.47;5038899;28;20652;-78
2022/11/01 02:30:45;;;;;;;6.55;3.80;;;;;;;12.51;100.00;100478.56;5036402;28;20436;-76
2022/11/01 02:33:23;;;;;;;7.80;4.32;;;;;;;12.54;100.00;100473.44;5041228;28;20262;-80
2022/11/01 02:36:01;;;;;;;11.32;4.68;;;;;;;12.54;100.00;100476.03;5040899;28;20482;-78
2022/11/01 02:38:36;;;;;;;5.25;3.35;;;;;;;12.56;100.00;100477.78;5039364;28;20051;-77
2022/11/01 02:41:11;;;;;;;9.30;3.67;;;;;;;12.58;100.00;100476.09;5038770;28;20102;-77
2022/11/01 02:43:49;;;;;;;7.43;3.63;;;;;;;12.60;100.00;100478.72;5040612;28;20052;-77
2022/11/01 02:49:12;;;;;;;7.95;4.10;;;;;;;12.61;100.00;100470.09;5038174;28;20062;-77
2022/11/01 02:51:43;;;;;;;9.40;4.05;;;;;;;12.62;100.00;100477.03;5042767;28;20642;-79
2022/11/01 02:54:21;;;;;;;7.65;4.32;;;;;;;12.63;100.00;100478.78;5040356;28;20676;-77
2022/11/01 02:56:52;;;;;;;7.00;3.83;;;;;;;12.65;100.00;100476.22;5032739;28;20045;-77
2022/11/01 02:59:25;;;;;;;7.88;3.88;;;;;;;12.64;100.00;100470.13;5038610;28;20491;-77
2022/11/01 03:01:59;;;;;;;6.85;4.28;;;;;;;12.66;100.00;100473.63;5037587;28;20103;-78
2022/11/01 03:04:29;;;;;;;8.52;4.13;;;;;;;12.65;100.00;100465.81;5043049;28;20049;-78
2022/11/01 03:07:02;;;;;;;10.90;3.72;;;;;;;12.63;100.00;100447.63;5039884;28;20884;-77
2022/11/01 03:09:32;;;;;;;8.10;3.10;;;;;;;12.63;100.00;100446.75;5043856;28;20079;-79
2022/11/01 03:12:04;;;;;;;5.10;2.50;;;;;;;12.58;100.00;100449.28;5045331;28;20045;-79
2022/11/01 03:14:40;;;;;;;2.15;1.75;;;;;;;12.55;100.00;100459.59;5033212;28;20057;-78
2022/11/01 03:17:13;;;;;;;4.45;2.08;;;;;;;12.52;100.00;100456.94;5043600;28;20136;-78
2022/11/01 03:19:47;;;;;;;1.40;1.20;;;;;;;12.49;100.00;100455.19;5036599;28;20044;-80
2022/11/01 03:22:21;;;;;;;2.20;1.35;;;;;;;12.46;100.00;100456.84;5032314;28;20102;-79
2022/11/01 03:24:55;;;;;;;4.03;1.20;;;;;;;12.44;100.00;100455.94;5041416;28;20059;-78
2022/11/01 03:27:31;;;;;;;2.40;1.55;;;;;;;12.39;100.00;100452.41;5043266;28;20037;-78
2022/11/01 03:30:17;;;;;;;4.03;2.13;;;;;;;12.34;100.00;100447.13;5045590;28;20049;-81
2022/11/01 03:32:50;;;;;;;5.07;1.30;;;;;;;12.30;100.00;100443.63;5039675;28;20053;-80
2022/11/01 03:35:31;;;;;;;6.25;1.60;;;;;;;12.25;100.00;100434.88;5042641;28;20049;-80
2022/11/01 03:38:17;;;;;;;;;;;;;;;;;;;;;
2022/11/01 03:40:58;;;;;;;1.58;1.15;;;;;;;12.22;100.00;100434.81;5042840;28;20498;-79
2022/11/01 03:43:40;;;;;;;2.72;1.10;;;;;;;12.19;100.00;100445.16;5045992;28;20052;-82
2022/11/01 03:46:10;;;;;;;3.53;1.25;;;;;;;12.14;100.00;100442.47;5047102;28;20041;-80
2022/11/01 03:48:40;;;;;;;2.47;1.50;;;;;;;12.09;100.00;100443.22;5048093;28;20052;-82
2022/11/01 03:51:25;;;;;;;2.33;1.45;;;;;;;12.07;100.00;100455.28;5046201;28;20052;-82
2022/11/01 03:53:54;;;;;;;1.90;1.38;;;;;;;12.01;100.00;100460.38;5043538;28;20529;-79
2022/11/01 03:56:23;;;;;;;4.03;1.55;;;;;;;11.95;100.00;100458.53;5038393;28;20056;-80
2022/11/01 03:59:01;;;;;;;4.95;1.92;;;;;;;11.86;100.00;100446.22;5043868;28;20550;-78
2022/11/01 04:01:33;;;;;;;2.75;1.55;;;;;;;11.76;100.00;100453.81;5046473;28;20049;-78
2022/11/01 04:04:18;;;;;;;3.63;1.67;;;;;;;11.72;100.00;100453.72;5049470;28;20060;-79
2022/11/01 04:06:49;;;;;;;8.25;2.50;;;;;;;11.71;100.00;100457.19;5044524;28;20061;-85
2022/11/01 04:09:20;;;;;;;3.40;1.85;;;;;;;11.71;100.00;100448.53;5044451;28;20119;-79
2022/11/01 04:11:49;;;;;;;4.75;1.88;;;;;;;11.72;100.00;100452.84;5049708;28;20044;-77
2022/11/01 04:22:42;;;;;;;5.00;2.00;;;;;;;11.56;100.00;100453.41;5047166;28;20106;-78
2022/11/01 04:25:11;;;;;;;3.72;1.73;;;;;;;11.57;100.00;100449.94;5048977;28;20059;-77
2022/11/01 04:27:40;;;;;;;4.25;1.63;;;;;;;11.58;100.00;100441.34;5042194;28;21332;-78
2022/11/01 04:30:11;;;;;;;3.83;1.77;;;;;;;11.57;100.00;100448.25;5042784;28;20045;-77
2022/11/01 04:32:43;;;;;;;5.93;2.17;;;;;;;11.48;100.00;100438.56;5042020;28;20102;-77
2022/11/01 04:35:11;;;;;;;4.60;1.97;;;;;;;11.38;100.00;100431.44;5042940;28;20049;-77
2022/11/01 04:37:42;;;;;;;2.38;1.60;;;;;;;11.30;100.00;100425.25;5048534;28;20120;-77
2022/11/01 04:40:12;;;;;;;4.15;2.13;;;;;;;11.29;100.00;100420.88;5043573;28;20053;-77
2022/11/01 04:42:41;;;;;;;3.00;1.40;;;;;;;11.27;100.00;100417.38;5045298;28;20084;-77
2022/11/01 04:45:10;;;;;;;3.17;2.00;;;;;;;11.21;100.00;100417.28;5043109;28;20514;-77
2022/11/01 04:47:49;;;;;;;3.00;1.52;;;;;;;11.19;100.00;100414.63;5043806;28;20032;-78
2022/11/01 04:50:18;;;;;;;3.58;1.50;;;;;;;11.23;100.00;100416.47;5046435;28;20057;-77
2022/11/01 04:52:48;;;;;;;2.58;1.67;;;;;;;11.20;100.00;100407.75;5046318;28;20092;-78
2022/11/01 04:55:17;;;;;;;2.00;1.38;;;;;;;11.15;100.00;100415.41;5048205;28;20044;-76
2022/11/01 04:57:46;;;;;;;3.25;1.63;;;;;;;11.10;100.00;100415.31;5048593;28;20565;-78
2022/11/01 05:00:15;;;;;;;3.55;1.70;;;;;;;11.13;100.00;100413.63;5050941;28;20103;-77
2022/11/01 05:02:44;;;;;;;2.65;1.27;;;;;;;11.11;100.00;100422.25;5043364;28;20049;-76
2022/11/01 05:05:13;;;;;;;3.03;1.23;;;;;;;11.04;100.00;100417.78;5045539;28;20049;-77
2022/11/01 05:07:41;;;;;;;2.25;1.30;;;;;;;11.05;100.00;100414.34;5037780;28;20060;-78
2022/11/01 05:10:12;;;;;;;1.23;1.02;;;;;;;11.09;100.00;100423.06;5047551;28;20678;-78
2022/11/01 05:12:41;;;;;;;3.40;1.02;;;;;;;11.12;100.00;100412.75;5045284;28;20636;-77
2022/11/01 05:15:10;;;;;;;2.53;1.33;;;;;;;11.14;100.00;100420.56;5039969;28;20061;-78
2022/11/01 05:17:42;;;;;;;4.65;1.40;;;;;;;11.18;100.00;100425.84;5043956;28;20445;-77
2022/11/01 05:20:11;;;;;;;3.83;0.88;;;;;;;11.20;100.00;100420.69;5043889;28;20148;-77
2022/11/01 05:22:42;;;;;;;10.48;1.23;;;;;;;11.15;100.00;100410.22;5041143;28;20591;-78
2022/11/01 05:25:12;;;;;;;1.80;0.93;;;;;;;11.13;100.00;100408.44;5048785;28;20041;-80
2022/11/01 05:27:41;;;;;;;2.20;0.90;;;;;;;11.08;100.00;100400.59;5046344;28;20051;-76
2022/11/01 05:30:11;;;;;;;4.65;1.05;;;;;;;11.06;100.00;100397.97;5047882;28;20064;-79
2022/11/01 05:32:39;;;;;;;1.48;1.05;;;;;;;11.02;100.00;100390.97;5045012;28;20053;-79
2022/11/01 05:35:15;;;;;;;1.65;1.20;;;;;;;11.02;100.00;100392.69;5044046;28;20049;-80
2022/11/01 05:37:44;;;;;;;2.63;1.30;;;;;;;11.02;100.00;100396.16;5038076;28;20099;-77
2022/11/01 05:40:14;;;;;;;6.97;1.30;;;;;;;11.02;100.00;100408.25;5048958;28;20052;-77
2022/11/01 05:42:48;;;;;;;2.17;1.13;;;;;;;10.99;100.00;100405.56;5043005;28;20041;-78
2022/11/01 05:45:17;;;;;;;2.35;1.20;;;;;;;10.97;100.00;100405.56;5041282;28;20136;-78
2022/11/01 05:47:46;;;;;;;2.05;1.13;;;;;;;10.98;100.00;100403.81;5040288;28;20545;-78
2022/11/01 05:50:16;;;;;;;0.98;0.70;;;;;;;10.98;100.00;100412.47;5044545;28;20152;-77
2022/11/01 05:52:44;;;;;;;3.60;1.20;;;;;;;10.98;100.00;100409.00;5044962;28;20045;-77
2022/11/01 05:55:15;;;;;;;2.95;1.10;;;;;;;10.97;100.00;100408.13;5046561;28;20045;-77
2022/11/01 05:57:43;;;;;;;1.20;0.80;;;;;;;10.99;100.00;100405.56;5045080;28;20059;-78
2022/11/01 06:00:13;;;;;;;1.38;1.00;;;;;;;10.98;100.00;100404.69;5049531;28;20049;-78
2022/11/01 06:02:41;;;;;;;2.65;1.05;;;;;;;10.98;100.00;100394.34;5044553;28;20534;-79
2022/11/01 06:05:10;;;;;;;1.52;1.13;;;;;;;10.97;100.00;100402.97;5039993;28;20549;-78
2022/11/01 06:07:42;;;;;;;2.95;1.20;;;;;;;10.96;100.00;100382.22;5042577;28;20407;-79
2022/11/01 06:10:11;;;;;;;1.42;0.90;;;;;;;10.95;100.00;100378.75;5044439;28;20053;-78
2022/11/01 06:12:41;;;;;;;1.98;1.05;;;;;;;10.95;100.00;100381.34;5044863;28;20125;-80
2022/11/01 06:15:10;;;;;;;3.70;1.02;;;;;;;10.96;100.00;100370.13;5049352;28;20052;-78
2022/11/01 06:17:39;;;;;;;1.92;1.02;;;;;;;10.95;100.00;100373.56;5044280;28;20049;-78
2022/11/01 06:20:08;;;;;;;1.67;1.10;;;;;;;10.92;100.00;100378.66;5041395;28;20057;-80
2022/11/01 06:22:37;;;;;;;1.75;1.00;;;;;;;10.90;100.00;100370.00;5042895;28;20061;-80
2022/11/01 06:25:07;;;;;;;3.97;1.35;;;;;;;10.87;100.00;100360.44;5046048;28;20060;-81
2022/11/01 06:27:35;;;;;;;1.85;0.60;;;;;;;10.85;100.00;100353.50;5044460;28;20802;-80
2022/11/01 06:30:06;;;;;;;2.67;0.60;;;;;;;10.83;100.00;100357.75;5044280;28;20045;-80
2022/11/01 06:32:35;;;;;;;2.25;0.63;;;;;;;10.79;100.00;100355.94;5048415;28;20566;-80
2022/11/01 06:35:11;;;;;;;1.95;0.55;;;;;;;10.74;100.00;100349.78;5044288;28;20052;-79
2022/11/01 06:37:41;;;;;;;1.42;0.70;;;;;;;10.69;100.00;100350.56;5041804;28;20071;-79
2022/11/01 06:40:11;;;;;;;2.90;0.60;;;;;;;10.65;100.00;100353.94;5029199;28;20053;-78
2022/11/01 06:42:40;;;;;;;0.57;0.35;;;;;;;10.62;100.00;100353.84;5019715;28;20068;-79
2022/11/01 06:45:11;;;;;;;1.98;0.98;;;;;;;10.60;100.00;100360.69;5021808;28;20049;-78
2022/11/01 06:47:40;;;;;;;2.85;0.68;;;;;;;10.58;100.00;100348.56;5021836;28;20053;-78
2022/11/01 06:50:09;;;;;;;1.40;0.85;;;;;;;10.58;100.00;100351.16;5019568;28;20049;-78
2022/11/01 06:52:37;;;;;;;2.65;0.45;;;;;;;10.56;100.00;100348.56;5021420;28;20046;-78
2022/11/01 06:55:07;;;;;;;2.75;0.98;;;;;;;10.54;100.00;100345.06;5016476;28;20041;-79
2022/11/01 06:57:36;;;;;;;0.73;0.43;;;;;;;10.50;100.00;100343.22;5019491;28;20120;-78
2022/11/01 07:00:05;;;;;;;4.13;0.98;;;;;;;10.47;100.00;100338.00;5016058;28;20045;-79
2022/11/01 07:02:36;;;;;;;1.42;0.60;;;;;;;10.45;100.00;100331.91;5017559;28;20049;-78
2022/11/01 07:05:05;;;;;;;1.48;0.63;;;;;;;10.41;100.00;100323.19;5021065;28;20045;-80
2022/11/01 07:07:34;;;;;;;3.13;0.50;;;;;;;10.38;100.00;100319.69;5021495;28;20049;-80
2022/11/01 07:10:02;;;;;;;1.10;0.38;;;;;;;10.34;100.00;100316.13;5020894;28;20053;-80
2022/11/01 07:12:34;;;;;;;3.65;0.70;;;;;;;10.33;100.00;100321.25;5021554;28;20521;-79
2022/11/01 07:15:03;;;;;;;4.10;0.60;;;;;;;10.32;100.00;100322.09;5020731;28;20061;-79
2022/11/01 07:17:32;;;;;;;2.20;1.10;;;;;;;10.31;100.00;100310.91;5020551;28;20034;-79
2022/11/01 07:20:02;;;;;;;1.45;0.88;;;;;;;10.31;100.00;100305.72;5026292;28;20042;-78
2022/11/01 07:22:30;;;;;;;4.15;0.70;;;;;;;10.30;100.00;100300.50;5025176;28;20065;-79
2022/11/01 07:24:59;;;;;;;1.10;0.60;;;;;;;10.31;100.00;100310.00;5027594;28;20123;-79
2022/11/01 07:27:28;;;;;;;1.45;0.82;;;;;;;10.30;100.00;100305.69;5021332;28;20053;-79
2022/11/01 07:29:56;;;;;;;4.25;1.00;;;;;;;10.25;100.00;100311.56;5026288;28;20038;-79
2022/11/01 07:32:25;;;;;;;2.08;0.77;;;;;;;10.22;100.00;100311.50;5019548;28;20058;-78
2022/11/01 07:34:53;;;;;;;0.82;0.60;;;;;;;10.19;100.00;100303.69;5021127;28;20050;-78
2022/11/01 07:37:24;;;;;;;2.78;0.98;;;;;;;10.20;100.00;100302.84;5020180;28;20049;-78
2022/11/01 07:39:52;;;;;;;1.95;0.70;;;;;;;10.24;100.00;100308.97;5032283;28;20052;-78
2022/11/01 07:42:21;;;;;;;1.30;0.80;;;;;;;10.27;100.00;100304.72;5040654;28;20109;-77
2022/11/01 07:44:57;;;;;;;3.30;1.25;;;;;;;10.30;100.00;100303.97;5038918;28;20117;-78
2022/11/01 07:47:25;;;;;;;1.10;0.90;;;;;;;10.30;100.00;100297.91;5039707;28;20087;-78
2022/11/01 07:49:54;;;;;;;1.75;0.85;;;;;;;10.30;100.00;100296.19;5042480;28;20057;-78
2022/11/01 07:52:24;;;;;;;2.08;1.05;;;;;;;10.26;100.00;100286.59;5038775;28;20055;-78
2022/11/01 07:54:53;;;;;;;2.15;1.00;;;;;;;10.21;100.00;100283.91;5040293;28;20057;-78
2022/11/01 07:57:21;;;;;;;1.88;1.13;;;;;;;10.23;100.00;100278.78;5037514;28;20056;-78
2022/11/01 07:59:50;;;;;;;3.33;1.05;;;;;;;10.24;100.00;100281.41;5036517;28;20499;-79
2022/11/01 08:02:19;;;;;;;1.42;1.00;;;;;;;10.25;100.00;100275.38;5039774;28;20599;-79
2022/11/01 08:04:47;;;;;;;1.17;0.75;;;;;;;10.25;100.00;100274.50;5040101;28;20049;-79
2022/11/01 08:07:16;;;;;;;4.63;1.02;;;;;;;10.29;100.00;100262.56;5037862;28;20395;-80
2022/11/01 08:09:48;;;;;;;1.25;0.82;;;;;;;10.33;100.00;100261.78;5043505;28;20411;-80
2022/11/01 08:12:16;;;;;;;7.25;1.27;;;;;;;10.30;100.00;100248.78;5044034;28;20049;-80
2022/11/01 08:14:45;;;;;;;2.30;1.05;;;;;;;10.26;100.00;100238.34;5040802;28;20131;-81
2022/11/01 08:17:13;;;;;;;1.67;1.02;;;;;;;10.22;100.00;100246.88;5043586;28;20049;-80
2022/11/01 08:19:42;;;;;;;1.63;1.05;;;;;;;10.19;100.00;100249.41;5036314;28;20041;-78
2022/11/01 08:22:11;;;;;;;1.50;0.90;;;;;;;10.20;100.00;100245.09;5033886;28;20071;-78
2022/11/01 08:24:39;;;;;;;2.15;1.13;;;;;;;10.20;100.00;100242.50;5047727;28;20051;-78
2022/11/01 08:27:09;;;;;;;3.67;0.85;;;;;;;10.18;100.00;100242.47;5042712;28;20483;-79
2022/11/01 08:29:38;;;;;;;2.70;1.40;;;;;;;10.21;100.00;100241.66;5038846;28;20128;-78
2022/11/01 08:32:07;;;;;;;1.00;0.77;;;;;;;10.20;100.00;100238.22;5037720;28;20053;-79
2022/11/01 08:34:35;;;;;;;2.10;0.75;;;;;;;10.20;100.00;100240.78;5040270;28;20061;-79
2022/11/01 08:37:05;;;;;;;1.88;0.80;;;;;;;10.22;100.00;100244.28;5040112;28;20414;-78
2022/11/01 08:39:33;;;;;;;2.45;0.95;;;;;;;10.24;100.00;100242.63;5038347;28;20049;-79
2022/11/01 08:42:04;;;;;;;2.53;1.13;;;;;;;10.25;100.00;100233.13;5038277;28;20408;-79
2022/11/01 08:44:34;;;;;;;4.40;1.00;;;;;;;10.22;100.00;100239.13;5036702;28;20053;-79
2022/11/01 08:47:03;;;;;;;1.10;0.70;;;;;;;10.19;100.00;100254.56;5037565;28;20360;-79
2022/11/01 08:49:32;;;;;;;6.00;1.23;;;;;;;10.17;100.00;100250.19;5038609;28;20415;-79
2022/11/01 08:52:01;;;;;;;3.00;1.27;;;;;;;10.15;100.00;100242.41;5043668;28;20418;-78
2022/11/01 08:54:29;;;;;;;4.13;1.10;;;;;;;10.15;100.00;100241.53;5040030;28;20055;-79
2022/11/01 08:56:58;;;;;;;1.92;1.00;;;;;;;10.16;100.00;100233.81;5044216;28;20051;-80
2022/11/01 08:59:28;;;;;;;2.70;1.20;;;;;;;10.18;100.00;100233.84;5040792;28;20071;-79
2022/11/01 09:01:58;;;;;;;2.10;0.88;;;;;;;10.16;100.00;100231.22;5043277;28;20082;-79
2022/11/01 09:04:27;;;;;;;1.17;0.90;;;;;;;10.12;100.00;100226.81;5041167;28;20053;-80
2022/11/01 09:06:56;;;;;;;2.40;1.30;;;;;;;10.11;100.00;100230.25;5042360;28;20485;-78
2022/11/01 09:09:25;;;;;;;1.55;0.95;;;;;;;10.09;100.00;100233.63;5039806;28;20086;-80
2022/11/01 09:11:53;;;;;;;7.18;0.80;;;;;;;10.06;100.00;100221.53;5037635;28;20045;-80
2022/11/01 09:14:23;;;;;;;3.92;0.82;;;;;;;10.06;100.00;100222.38;5039881;28;20060;-79
2022/11/01 09:16:52;;;;;;;1.00;0.60;;;;;;;10.08;100.00;100230.19;5046259;28;20053;-80
2022/11/01 09:19:23;;;;;;;0.98;0.47;;;;;;;10.08;100.00;100214.69;5044966;28;20141;-79
2022/11/01 09:21:51;;;;;;;1.77;0.73;;;;;;;10.07;100.00;100220.66;5048095;28;20403;-79
2022/11/01 09:24:20;;;;;;;5.22;1.48;;;;;;;10.06;100.00;100221.53;5039737;28;20055;-81
2022/11/01 09:26:49;;;;;;;0.80;0.57;;;;;;;10.03;100.00;100216.25;5031715;28;20443;-80
2022/11/01 09:29:19;;;;;;;2.10;0.60;;;;;;;10.01;100.00;100233.44;5039013;28;20635;-81
2022/11/01 09:31:52;;;;;;;4.55;1.02;;;;;;;9.96;100.00;100219.53;5039269;28;20063;-81
2022/11/01 09:34:22;;;;;;;3.58;1.05;;;;;;;9.94;100.00;100226.38;5039778;28;20140;-80
2022/11/01 09:36:51;;;;;;;2.78;0.82;;;;;;;9.90;100.00;100217.69;5044568;28;20080;-79
2022/11/01 09:39:20;;;;;;;1.50;1.02;;;;;;;9.86;100.00;100219.31;5041082;28;20073;-80
2022/11/01 09:42:01;;;;;;;6.53;0.82;;;;;;;9.84;100.00;100214.97;5042316;28;20499;-79
2022/11/01 09:44:32;;;;;;;1.70;1.10;;;;;;;9.81;100.00;100213.19;5041515;28;20064;-79
2022/11/01 09:47:06;;;;;;;8.45;1.42;;;;;;;9.79;100.00;100214.84;5038467;28;20458;-79
2022/11/01 09:49:39;;;;;;;4.57;0.90;;;;;;;9.78;100.00;100219.97;5038135;28;20483;-80
2022/11/01 09:52:15;;;;;;;2.38;1.10;;;;;;;9.76;100.00;100222.53;5040679;28;20438;-80
2022/11/01 09:54:44;;;;;;;1.70;0.95;;;;;;;9.75;100.00;100218.19;5044268;28;20060;-80
2022/11/01 09:57:21;;;;;;;1.80;1.05;;;;;;;9.77;100.00;100213.94;5039727;28;20045;-80
2022/11/01 10:00:02;;;;;;;1.40;0.98;;;;;;;9.74;100.00;100219.03;5044922;28;20043;-79
2022/11/01 10:03:14;;;;;;;1.90;1.30;;;;;;;9.71;100.00;100212.91;5036757;28;20059;-80
2022/11/01 10:05:52;;;;;;;3.55;1.33;;;;;;;9.65;100.00;100205.91;5047891;28;20590;-79
2022/11/01 10:08:42;;;;;;;2.50;1.65;;;;;;;9.63;100.00;100199.81;5038672;28;20537;-81
2022/11/01 10:11:31;;;;;;;2.67;1.52;;;;;;;9.56;99.60;100195.34;5039051;28;20053;-79
2022/11/01 10:14:13;;;;;;;6.55;1.85;;;;;;;9.55;100.00;100185.84;5041877;28;20052;-79
2022/11/01 10:17:07;;;;;;;2.65;1.25;;;;;;;9.53;100.00;100183.25;5041688;28;20056;-79
2022/11/01 10:19:37;;;;;;;2.00;1.30;;;;;;;9.50;100.00;100172.81;5046246;28;20045;-78
2022/11/01 10:22:17;;;;;;;1.88;1.17;;;;;;;9.43;100.00;100170.91;5036460;28;20052;-78
2022/11/01 10:24:52;;;;;;;1.98;1.10;;;;;;;9.38;100.00;100168.22;5036589;28;20045;-79
2022/11/01 10:27:28;;;;;;;2.38;1.00;;;;;;;9.34;100.00;100165.53;5043620;28;20049;-79
2022/11/01 10:30:03;;;;;;;2.75;1.23;;;;;;;9.33;100.00;100171.53;5041216;28;20434;-79
2022/11/01 10:32:38;;;;;;;2.58;0.77;;;;;;;9.28;100.00;100168.84;5041865;28;20415;-79
2022/11/01 10:35:14;;;;;;;3.65;0.88;;;;;;;9.25;100.00;100170.47;5036442;28;20075;-79
2022/11/01 10:37:50;;;;;;;2.38;1.08;;;;;;;9.20;100.00;100165.19;5042261;28;20526;-79
2022/11/01 10:40:35;;;;;;;2.33;0.98;;;;;;;9.16;100.00;100168.50;5033331;28;20136;-79
2022/11/01 10:43:13;;;;;;;1.55;0.90;;;;;;;9.17;100.00;100163.41;5021473;28;20536;-78
2022/11/01 10:45:44;;;;;;;6.18;1.15;;;;;;;9.17;100.00;100162.53;5011414;28;20053;-78
2022/11/01 10:48:17;;;;;;;3.85;1.70;;;;;;;9.16;100.00;100160.78;5018951;28;20050;-79
2022/11/01 10:50:46;;;;;;;1.10;0.90;;;;;;;9.16;100.00;100148.75;5021874;28;20044;-78
2022/11/01 10:53:20;;;;;;;2.17;1.38;;;;;;;9.19;100.00;100145.38;5018062;28;20402;-78
2022/11/01 10:55:55;;;;;;;3.13;1.08;;;;;;;9.19;100.00;100150.53;5024435;28;20081;-78
2022/11/01 10:58:38;;;;;;;2.45;1.17;;;;;;;9.19;100.00;100150.53;5024038;28;20048;-79
2022/11/01 11:01:12;;;;;;;3.03;1.10;;;;;;;9.17;100.00;100147.03;5023644;28;20103;-79
2022/11/01 11:03:43;;;;;;;2.15;1.30;;;;;;;9.11;100.00;100152.03;5026351;28;20052;-79
2022/11/01 11:06:14;;;;;;;1.85;1.40;;;;;;;9.11;100.00;100137.41;5013921;28;20049;-78
2022/11/01 11:08:56;;;;;;;3.83;2.13;;;;;;;9.14;100.00;100140.09;5020744;28;20144;-79
2022/11/01 11:11:35;;;;;;;2.03;1.13;;;;;;;9.15;100.00;100122.91;5016461;28;20419;-80
2022/11/01 11:14:07;;;;;;;4.13;1.33;;;;;;;9.14;100.00;100123.72;5021173;28;20507;-78
2022/11/01 11:16:40;;;;;;;2.38;1.30;;;;;;;9.11;100.00;100126.22;5024655;28;20060;-80
2022/11/01 11:19:18;;;;;;;3.28;1.60;;;;;;;9.06;100.00;100128.69;5020823;28;20057;-79
2022/11/01 11:21:49;;;;;;;5.10;1.77;;;;;;;9.07;100.00;100126.97;5026407;28;20427;-78
2022/11/01 11:24:22;;;;;;;2.88;1.27;;;;;;;9.08;100.00;100131.31;5015006;28;20766;-79
2022/11/01 11:26:53;;;;;;;6.93;1.08;;;;;;;9.05;100.00;100120.91;5017881;28;20045;-79
2022/11/01 11:29:38;;;;;;;2.97;1.30;;;;;;;9.02;100.00;100125.19;5020295;28;20048;-79
2022/11/01 11:32:14;;;;;;;2.85;1.30;;;;;;;8.96;100.00;100126.72;5015275;28;20046;-79
2022/11/01 11:34:47;;;;;;;2.80;1.65;;;;;;;8.95;100.00;100120.66;5013558;28;20077;-78
2022/11/01 11:37:22;;;;;;;3.15;1.30;;;;;;;8.97;100.00;100123.31;5016471;28;20169;-79
2022/11/01 11:40:20;;;;;;;3.35;1.35;;;;;;;8.99;100.00;100132.81;5021118;28;20718;-79
2022/11/01 11:42:52;;;;;;;1.75;1.40;;;;;;;8.98;100.00;100136.25;5037379;28;21164;-79
2022/11/01 11:45:26;;;;;;;2.20;1.57;;;;;;;9.01;100.00;100135.47;5037894;28;20045;-79
2022/11/01 11:47:55;;;;;;;2.65;1.00;;;;;;;8.97;100.00;100126.75;5037383;28;20928;-80
2022/11/01 11:50:32;;;;;;;0.82;0.82;;;;;;;8.93;100.00;100122.38;5036867;28;20705;-80
2022/11/01 11:53:09;;;;;;;2.05;1.20;;;;;;;8.91;100.00;100123.13;5035151;28;20494;-80
2022/11/01 11:55:42;;;;;;;2.08;1.15;;;;;;;8.92;100.00;100123.19;5041347;28;20137;-82